KCIC/CIC METAR and TAF weather

Enter ICAO airport designator
Station Type Date Time Source
KCIC METAR 2020/04/06 13:50 UTC NOAA

KCIC 061350Z 10003KT 10SM FEW038 SCT055 OVC065 07/05 A2985


Station Type Date Time Source
KCIC Decoded METAR 2020/04/06 13:50 UTC NOAA

Chico Municipal , CA, United States (KCIC) 39-48N 121-51W
Apr 06, 2020 - 09:50 AM EDT / 2020.04.06 1350 UTC
Wind: from the E (100 degrees) at 3 MPH (3 KT):0
Visibility: 10 mile(s):0
Sky conditions: overcast
Temperature: 44 F (7 C)
Dew Point: 41 F (5 C)
Relative Humidity: 87%
Pressure (altimeter): 29.85 in. Hg (1010 hPa)
ob: KCIC 061350Z 10003KT 10SM FEW038 SCT055 OVC065 07/05 A2985
cycle: 14

Station Type Date Time Source
KCIC TAF UTC NOAA

Error!

Example: see airport list